Rejestracja

Wszystkie dane podawane są w czasie UTC za wyjątkiem miejsc gdzie jest jednoznacznie podane, że jest inaczej. Dane podawane w serwisie mają charakter informacyjny!!!
Informacje w sprawie dostępu do serwisu pod numerem tel. +48 261-828-559 lub +48 261-828-138
Informacja dla żołnierzy i pracowników wojska: Prosimy o niezwłoczną zmianę adresu e-mail w profilu użytkownika na pocztę w domenie @ron.mil.pl

Aktualna Pogoda
 
Pogoda w Polsce
12°C Szczecin 11°C Suwałki 13°C Warszawa 11°C Poznan
14°C Opole 13°C Kraków 14°C Rzeszów
Więcej miast w Polsce

Pogoda w Europie
14°C Berlin 17°C Paryz 16°C Bruksela 11°C Oslo
14°C Praga 14°C Zagrzeb
Więcej miast w Europie

Metary wojskowe test
METAR EPBC 090400Z 23002KT CAVOK 14/11 Q1017=
METAR EPCE 090430Z 23004KT 9999 FEW059 11/09 Q1015 RMK 112 087 5/1=
METAR EPDA 090430Z 21006KT 200V270 9999 FEW040 BKN223 13/10 Q1015 RMK 129 085 7/1=
METAR EPDE 090430Z 27002KT 9999 SCT100 14/11 Q1018 RMK 142 082 4/4=
METAR EPIR 090430Z 21006KT 9999 BKN080 12/10 Q1016 RMK 124 085 7/7=
METAR EPKS 090430Z VRB02KT 1500 BR BKN002 11/11 Q1017 RMK 109 100 7/7=
METAR EPLK 090430Z 22003KT 180V250 0500 R28/0900N FG OVC001 11/11 Q1018 RMK 107 100 8/8=
METAR EPLY 090430Z 25004KT 9999 SCT050 BKN080 12/11 Q1017 RMK 124 092 6/4=
METAR EPMB 090430Z AUTO 26007KT 9999 BKN057/// OVC081/// 12/10 Q1016 RMK 117 087 8/7=
METAR EPMI 090430Z 14002KT 9999 FEW070 BKN210 09/09 Q1016 RMK 091 097 5/1=
METAR EPMM 090430Z 27003KT 250V310 9999 BKN086 13/11 Q1017 RMK 125 088 5/5=
METAR EPOK 090430Z 24006KT 9999 FEW069 SCT091 BKN/// 13/09 Q1015 RMK 131 077 6/2=
METAR EPPR 090430Z 20002KT 9999 SCT056 BKN083 12/09 Q1015 RMK 115 086 6/3=
METAR EPPW 090430Z 24004KT 0400 R28L/0600N FG BKN002 11/11 Q1017 RMK 108 100 7/7=
METAR EPSN 090430Z 19004KT 9999 BKN200 10/10 Q1015 RMK 097 100 5/5=
METAR EPTM 090430Z 22002KT 8000 SCT080 BKN200 13/11 Q1018 RMK 127 091 6/3=


 

Prawa autorskie©2007 SSH SZ RP. Wszelkie prawa zastrzeżone.